Murray, KY (42071)

5:07 AM CST on January 17, 2017 (GMT -0600)
HooperHoller | | Change Station

Elev 440 ft 36.65 °N, 88.11 °W | Updated 15 seconds ago

Overcast
Overcast
61.7 °F
Feels Like 61.7 °F
N
0.0
Wind Variable Wind from South

Today
High -- | Low -- °F
--% Chance of Precip.
Yesterday
High -- | Low -- °F
Precip. -- in
Pressure 29.97 in
Visibility 7.0 miles
Clouds Mostly Cloudy 1200 ft
Overcast 1700 ft
Dew Point 61 °F
Humidity 98%
Rainfall 0.30 in
Snow Depth Not available.
7:03 AM 5:03 PM
Waning Gibbous, 73% visible
METAR KM25 171115Z AUTO 22011KT 7SM BKN012 OVC017 15/14 A2997 RMK AO2 PWINO
Pressure 29.97 in
Visibility 7.0 miles
Clouds Mostly Cloudy 1200 ft
Overcast 1700 ft
Dew Point 61 °F
Humidity 98%
Rainfall 0.30 in
Snow Depth Not available.
7:03 AM 5:03 PM
Waning Gibbous, 73% visible
METAR KM25 171115Z AUTO 22011KT 7SM BKN012 OVC017 15/14 A2997 RMK AO2 PWINO

Get Your Daily Forecast Email!

Thanks for signing up!

Be on the lookout for a verification email in your inbox.

You'll start receiving the daily forecast at 8 AM.

×

10-Day Weather Forecast

Almanac

Astronomy

Jan. 17, 2017 Rise Set
Actual Time
Civil Twilight
Nautical Twilight
Astronomical Twilight
Moon
Length of Visible Light
Length of Day
Tomorrow will be .
, % of the Moon is Illuminated

Today's Extremes

State Highs State Lows

Community

WunderPhotos

Upload Photos

1,962,540 photos uploaded!

WunderBlog® & News

Nearby

Air Quality

  Air Quality AQ Index Pollutant
Not available.

Snow Depth

Station Depth Elevation

Earthquake Activity

City Distance Mag. Time & Date
Minimum magnitude displayed is 2.5.

Coastal Water Temperatures

Place Temperature

Stations

Nearby Weather Stations

Station Location Temp. Windchill Dew Point Humidity Wind Precip. Elev Updated Type
                   

Watches & Warnings

There are currently no watches in effect.